Time;durP1;ratioP1;P1;durP2;ratioP2;P2;SDS_P1;SDS_P2;PMS_P1;PMS_P2;Temp;Humidity;BMP_temperature;BMP_pressure;BME280_temperature;BME280_humidity;BME280_pressure;Samples;Min_cycle;Max_cycle;Signal;HPM_P1;HPM_P2
2022/06/01 00:02:27;;;;;;;;;;;13.80;90.00;;;;;;5038552;28;19929;-78
2022/06/01 00:04:54;;;;;;;;;;;13.80;90.40;;;;;;5053469;28;19925;-79
2022/06/01 00:07:23;;;;;;;;;;;13.70;90.20;;;;;;5071760;28;19925;-78
2022/06/01 00:09:53;;;;;;;;;;;13.70;90.10;;;;;;5055047;28;19991;-78
2022/06/01 00:12:20;;;;;;;;;;;13.70;90.10;;;;;;5053614;28;19929;-79
2022/06/01 00:14:47;;;;;;;;;;;13.70;90.30;;;;;;5054373;28;19931;-78
2022/06/01 00:17:15;;;;;;;;;;;13.60;90.80;;;;;;5056164;28;19925;-78
2022/06/01 00:19:42;;;;;;;;;;;13.60;90.20;;;;;;5054904;28;20020;-78
2022/06/01 00:22:16;;;;;;;;;;;13.60;90.70;;;;;;5038444;28;20019;-78
2022/06/01 00:24:44;;;;;;;;;;;13.60;90.40;;;;;;5054640;28;19925;-78
2022/06/01 00:27:13;;;;;;;;;;;13.50;90.40;;;;;;5054728;28;20020;-78
2022/06/01 00:29:40;;;;;;;;;;;13.50;90.60;;;;;;5054765;28;20020;-78
2022/06/01 00:32:08;;;;;;;;;;;13.40;90.90;;;;;;5054713;28;20673;-78
2022/06/01 00:34:35;;;;;;;;;;;13.40;91.00;;;;;;5055856;28;19925;-79
2022/06/01 00:37:01;;;;;;;;;;;13.30;91.00;;;;;;5054484;28;19921;-79
2022/06/01 00:39:28;;;;;;;;;;;13.30;91.80;;;;;;5054394;28;19931;-78
2022/06/01 00:41:56;;;;;;;;;;;13.30;91.80;;;;;;5053133;28;20907;-78
2022/06/01 00:44:24;;;;;;;;;;;13.20;92.20;;;;;;5054772;28;19925;-78
2022/06/01 00:46:51;;;;;;;;;;;13.20;91.50;;;;;;5070650;28;20459;-79
2022/06/01 00:49:19;;;;;;;;;;;13.20;91.70;;;;;;5054386;28;19925;-79
2022/06/01 00:51:46;;;;;;;;;;;13.20;91.40;;;;;;5054411;28;19929;-78
2022/06/01 00:54:14;;;;;;;;;;;13.20;91.60;;;;;;5055425;28;19931;-78
2022/06/01 00:56:42;;;;;;;;;;;13.10;91.90;;;;;;5054451;28;19921;-78
2022/06/01 00:59:10;;;;;;;;;;;13.10;92.00;;;;;;5055808;28;20375;-78
2022/06/01 01:01:39;;;;;;;;;;;13.10;92.20;;;;;;5054496;28;19979;-78
2022/06/01 01:04:06;;;;;;;;;;;13.00;92.20;;;;;;5053998;28;19925;-78
2022/06/01 01:06:36;;;;;;;;;;;13.00;92.40;;;;;;5055455;28;19928;-78
2022/06/01 01:09:04;;;;;;;;;;;13.00;92.30;;;;;;5053770;28;20387;-79
2022/06/01 01:11:33;;;;;;;;;;;13.00;92.60;;;;;;5053689;28;20012;-78
2022/06/01 01:14:00;;;;;;;;;;;12.90;92.70;;;;;;5070323;28;19921;-78
2022/06/01 01:16:28;;;;;;;;;;;12.90;92.90;;;;;;5051501;28;20015;-78
2022/06/01 01:18:56;;;;;;;;;;;12.90;93.10;;;;;;5053280;28;19925;-78
2022/06/01 01:21:28;;;;;;;;;;;12.80;93.00;;;;;;5053560;28;19936;-78
2022/06/01 01:24:01;;;;;;;;;;;12.80;93.10;;;;;;5053352;28;19960;-78
2022/06/01 01:26:29;;;;;;;;;;;12.80;93.10;;;;;;5054278;28;19925;-78
2022/06/01 01:28:56;;;;;;;;;;;12.80;93.10;;;;;;5037392;28;19931;-78
2022/06/01 01:31:24;;;;;;;;;;;12.80;93.00;;;;;;5055093;28;19937;-78
2022/06/01 01:33:52;;;;;;;;;;;12.80;93.10;;;;;;5053193;28;19932;-78
2022/06/01 01:36:22;;;;;;;;;;;12.70;93.30;;;;;;5053757;28;20007;-78
2022/06/01 01:38:51;;;;;;;;;;;12.70;93.10;;;;;;5053689;28;19928;-78
2022/06/01 01:41:22;;;;;;;;;;;12.70;93.00;;;;;;5053480;28;20027;-78
2022/06/01 01:43:55;;;;;;;;;;;12.70;92.80;;;;;;5053718;28;19924;-79
2022/06/01 01:46:22;;;;;;;;;;;12.70;92.40;;;;;;5053077;28;19925;-78
2022/06/01 01:48:48;;;;;;;;;;;12.70;92.50;;;;;;5054433;28;20386;-79
2022/06/01 01:51:19;;;;;;;;;;;12.70;92.50;;;;;;5054930;28;20020;-78
2022/06/01 01:53:46;;;;;;;;;;;12.70;92.60;;;;;;5051872;28;19929;-78
2022/06/01 01:56:16;;;;;;;;;;;12.70;92.60;;;;;;5054771;28;20012;-78
2022/06/01 01:58:49;;;;;;;;;;;12.60;92.60;;;;;;5053495;28;19929;-78
2022/06/01 02:01:20;;;;;;;;;;;12.60;92.70;;;;;;5053212;28;20374;-78
2022/06/01 02:03:48;;;;;;;;;;;12.60;92.90;;;;;;5037004;28;19925;-78
2022/06/01 02:06:17;;;;;;;;;;;12.60;93.00;;;;;;5053441;28;20461;-78
2022/06/01 02:08:46;;;;;;;;;;;12.60;93.20;;;;;;5052994;28;19925;-78
2022/06/01 02:14:02;;;;;;;;;;;12.50;93.40;;;;;;5063081;22;19932;-80
2022/06/01 02:16:33;;;;;;;;;;;12.50;93.50;;;;;;5019129;28;19948;-78
2022/06/01 02:19:01;;;;;;;;;;;12.40;93.60;;;;;;5034491;28;19976;-78
2022/06/01 02:21:28;;;;;;;;;;;12.40;93.70;;;;;;5033112;28;19929;-78
2022/06/01 02:23:56;;;;;;;;;;;12.40;93.80;;;;;;5024983;28;19968;-78
2022/06/01 02:26:23;;;;;;;;;;;12.40;93.80;;;;;;5013851;28;20024;-78
2022/06/01 02:28:52;;;;;;;;;;;12.40;94.10;;;;;;5014475;28;19925;-78
2022/06/01 02:31:19;;;;;;;;;;;12.40;94.40;;;;;;5012803;28;19937;-78
2022/06/01 02:33:48;;;;;;;;;;;12.40;94.70;;;;;;5013798;28;19948;-78
2022/06/01 02:36:17;;;;;;;;;;;12.30;94.50;;;;;;5012983;28;19926;-78
2022/06/01 02:38:44;;;;;;;;;;;12.30;94.40;;;;;;5014352;28;19925;-78
2022/06/01 02:42:25;;;;;;;;;;;12.30;94.50;;;;;;5012985;28;19987;-79
2022/06/01 02:43:59;;;;;;;;;;;12.30;94.60;;;;;;5012701;28;19958;-80
2022/06/01 02:46:26;;;;;;;;;;;12.30;94.60;;;;;;5014141;28;20388;-78
2022/06/01 02:48:55;;;;;;;;;;;12.30;94.70;;;;;;5012641;28;19925;-79
2022/06/01 02:51:22;;;;;;;;;;;12.20;94.70;;;;;;5012756;28;19937;-78
2022/06/01 02:53:49;;;;;;;;;;;12.20;94.70;;;;;;5012608;28;20307;-78
2022/06/01 02:56:16;;;;;;;;;;;12.20;94.80;;;;;;5012593;28;19931;-78
2022/06/01 02:58:43;;;;;;;;;;;12.20;94.90;;;;;;5012690;28;20012;-78
2022/06/01 03:01:11;;;;;;;;;;;12.20;94.90;;;;;;5014200;28;20625;-79
2022/06/01 03:03:39;;;;;;;;;;;12.20;95.10;;;;;;5011642;28;19932;-78
2022/06/01 03:06:31;;;;;;;;;;;12.20;95.00;;;;;;5012347;28;20094;-78
2022/06/01 03:08:59;;;;;;;;;;;12.10;95.00;;;;;;5012374;28;20330;-78
2022/06/01 03:11:26;;;;;;;;;;;12.10;95.30;;;;;;5012364;28;20001;-78
2022/06/01 03:13:53;;;;;;;;;;;12.10;95.10;;;;;;5012210;28;20398;-78
2022/06/01 03:16:19;;;;;;;;;;;12.10;95.00;;;;;;5019588;28;20740;-78
2022/06/01 03:18:46;;;;;;;;;;;12.10;95.10;;;;;;5037515;28;19926;-79
2022/06/01 03:21:13;;;;;;;;;;;12.10;95.00;;;;;;5012552;28;20367;-78
2022/06/01 03:23:40;;;;;;;;;;;12.10;95.00;;;;;;5012182;28;19926;-78
2022/06/01 03:26:08;;;;;;;;;;;12.10;95.00;;;;;;5013893;28;20133;-78
2022/06/01 03:28:35;;;;;;;;;;;12.10;95.10;;;;;;5012052;28;19926;-78
2022/06/01 03:31:02;;;;;;;;;;;12.10;95.40;;;;;;5013792;28;19962;-78
2022/06/01 03:33:28;;;;;;;;;;;12.10;95.30;;;;;;5012479;28;19925;-78
2022/06/01 03:35:55;;;;;;;;;;;12.10;95.40;;;;;;4992951;28;19932;-78
2022/06/01 03:38:22;;;;;;;;;;;12.10;95.40;;;;;;5024087;28;19968;-78
2022/06/01 03:40:48;;;;;;;;;;;12.10;95.60;;;;;;5012686;28;19929;-78
2022/06/01 03:43:19;;;;;;;;;;;12.10;95.60;;;;;;5012251;28;19977;-78
2022/06/01 03:45:58;;;;;;;;;;;12.10;95.70;;;;;;5012657;28;19925;-78
2022/06/01 03:48:27;;;;;;;;;;;12.10;95.70;;;;;;5015323;28;19925;-78
2022/06/01 03:50:54;;;;;;;;;;;12.10;95.60;;;;;;5015956;28;19969;-78
2022/06/01 03:53:23;;;;;;;;;;;12.10;95.80;;;;;;5016664;28;19932;-78
2022/06/01 03:55:50;;;;;;;;;;;12.10;96.00;;;;;;5016840;28;19926;-78
2022/06/01 03:58:19;;;;;;;;;;;12.00;96.00;;;;;;5016779;28;19932;-78
2022/06/01 04:00:46;;;;;;;;;;;12.00;95.80;;;;;;5015310;28;20466;-78
2022/06/01 04:03:13;;;;;;;;;;;12.00;95.90;;;;;;5016322;28;19937;-79
2022/06/01 04:05:39;;;;;;;;;;;12.00;96.00;;;;;;5012333;28;19932;-78
2022/06/01 04:08:07;;;;;;;;;;;12.00;95.90;;;;;;5015505;28;19964;-78
2022/06/01 04:10:34;;;;;;;;;;;12.00;95.90;;;;;;4998634;28;20024;-78
2022/06/01 04:13:01;;;;;;;;;;;12.00;96.00;;;;;;5031675;28;19925;-78
2022/06/01 04:15:29;;;;;;;;;;;12.00;96.00;;;;;;5051646;28;20879;-78
2022/06/01 04:17:56;;;;;;;;;;;12.00;96.20;;;;;;4996980;28;19949;-78
2022/06/01 04:20:23;;;;;;;;;;;12.00;96.00;;;;;;5015032;28;19983;-78
2022/06/01 04:22:52;;;;;;;;;;;11.90;96.20;;;;;;5016299;28;19926;-79
2022/06/01 04:25:19;;;;;;;;;;;12.00;96.20;;;;;;5015541;28;19933;-78
2022/06/01 04:27:46;;;;;;;;;;;11.90;96.40;;;;;;5014757;28;20016;-78
2022/06/01 04:30:14;;;;;;;;;;;12.00;96.50;;;;;;5031685;28;20336;-78
2022/06/01 04:32:43;;;;;;;;;;;11.90;96.30;;;;;;5026321;28;19944;-78
2022/06/01 04:35:10;;;;;;;;;;;12.00;96.40;;;;;;5027593;28;19925;-78
2022/06/01 04:37:37;;;;;;;;;;;12.00;96.30;;;;;;5014872;28;20383;-78
2022/06/01 04:40:04;;;;;;;;;;;11.90;96.30;;;;;;5015148;28;20811;-78
2022/06/01 04:42:31;;;;;;;;;;;12.00;96.50;;;;;;5014875;28;19927;-78
2022/06/01 04:44:57;;;;;;;;;;;11.90;96.50;;;;;;5014825;28;19925;-79
2022/06/01 04:47:24;;;;;;;;;;;11.90;96.50;;;;;;5014377;28;20403;-78
2022/06/01 04:49:52;;;;;;;;;;;11.90;96.50;;;;;;5016179;28;19936;-78
2022/06/01 04:52:19;;;;;;;;;;;11.90;96.50;;;;;;5013229;28;19926;-78
2022/06/01 04:54:46;;;;;;;;;;;11.90;96.70;;;;;;5014690;28;20016;-80
2022/06/01 04:57:12;;;;;;;;;;;11.90;96.70;;;;;;4997745;28;19988;-79
2022/06/01 04:59:39;;;;;;;;;;;11.90;96.30;;;;;;5014999;28;20322;-78
2022/06/01 05:02:06;;;;;;;;;;;11.90;96.10;;;;;;5014109;28;20012;-80
2022/06/01 05:04:33;;;;;;;;;;;12.00;95.80;;;;;;5014713;28;19934;-78
2022/06/01 05:07:02;;;;;;;;;;;12.00;95.90;;;;;;5014320;28;19925;-78
2022/06/01 05:09:29;;;;;;;;;;;12.00;95.90;;;;;;5014562;28;20406;-78
2022/06/01 05:11:56;;;;;;;;;;;12.00;95.80;;;;;;5014516;28;20431;-78
2022/06/01 05:14:23;;;;;;;;;;;12.00;96.00;;;;;;5014332;28;20384;-78
2022/06/01 05:16:49;;;;;;;;;;;12.10;96.10;;;;;;5014408;28;19926;-79
2022/06/01 05:19:18;;;;;;;;;;;12.10;96.00;;;;;;5014185;28;20376;-78
2022/06/01 05:21:44;;;;;;;;;;;12.10;96.30;;;;;;5015699;28;19926;-79
2022/06/01 05:24:13;;;;;;;;;;;12.10;96.30;;;;;;5030644;28;20005;-78
2022/06/01 05:26:40;;;;;;;;;;;12.10;96.10;;;;;;5044209;22;19933;-78
2022/06/01 05:29:06;;;;;;;;;;;12.20;96.80;;;;;;4996767;28;19977;-78
2022/06/01 05:31:33;;;;;;;;;;;12.20;96.70;;;;;;5013945;28;19926;-79
2022/06/01 05:34:00;;;;;;;;;;;12.20;96.70;;;;;;5013654;28;19979;-78
2022/06/01 05:36:29;;;;;;;;;;;12.20;96.70;;;;;;5014002;28;19965;-79
2022/06/01 05:38:56;;;;;;;;;;;12.20;96.80;;;;;;5013952;28;20334;-78
2022/06/01 05:41:24;;;;;;;;;;;12.20;96.60;;;;;;5015528;28;19926;-78
2022/06/01 05:43:51;;;;;;;;;;;12.20;96.60;;;;;;5013961;28;19925;-78
2022/06/01 05:46:18;;;;;;;;;;;12.20;96.60;;;;;;5013756;28;19926;-78
2022/06/01 05:48:45;;;;;;;;;;;12.20;96.90;;;;;;5029670;28;19929;-78
2022/06/01 05:51:12;;;;;;;;;;;12.20;97.00;;;;;;5013564;28;19999;-78
2022/06/01 05:53:38;;;;;;;;;;;12.20;96.90;;;;;;5013374;28;19932;-79
2022/06/01 05:56:05;;;;;;;;;;;12.20;96.80;;;;;;5015108;28;19983;-78
2022/06/01 05:58:33;;;;;;;;;;;12.20;96.90;;;;;;5013737;28;19929;-78
2022/06/01 06:01:01;;;;;;;;;;;12.20;97.10;;;;;;5014929;28;19926;-78
2022/06/01 06:03:28;;;;;;;;;;;12.20;97.00;;;;;;5012825;28;19968;-78
2022/06/01 06:06:15;;;;;;;;;;;12.20;97.00;;;;;;4922743;28;20489;-79
2022/06/01 06:08:43;;;;;;;;;;;12.20;97.00;;;;;;5011024;28;19988;-78
2022/06/01 06:11:11;;;;;;;;;;;12.20;97.00;;;;;;5008830;28;19932;-78
2022/06/01 06:13:39;;;;;;;;;;;12.20;97.00;;;;;;5011344;28;19926;-78
2022/06/01 06:16:06;;;;;;;;;;;12.30;97.10;;;;;;5010987;28;19926;-78
2022/06/01 06:18:33;;;;;;;;;;;12.30;97.20;;;;;;5010447;28;19961;-78
2022/06/01 06:20:59;;;;;;;;;;;12.40;97.50;;;;;;5012494;28;20322;-78
2022/06/01 06:23:26;;;;;;;;;;;12.40;97.50;;;;;;5011644;28;19925;-78
2022/06/01 06:25:53;;;;;;;;;;;12.40;97.60;;;;;;5014394;28;19926;-77
2022/06/01 06:28:20;;;;;;;;;;;12.50;97.70;;;;;;5028956;28;19930;-77
2022/06/01 06:30:48;;;;;;;;;;;12.50;97.60;;;;;;5012879;28;19933;-78
2022/06/01 06:33:15;;;;;;;;;;;12.50;97.70;;;;;;5011919;28;19932;-76
2022/06/01 06:35:42;;;;;;;;;;;12.50;97.70;;;;;;5012754;28;20383;-77
2022/06/01 06:38:09;;;;;;;;;;;12.50;97.60;;;;;;5010685;28;19929;-77
2022/06/01 06:40:36;;;;;;;;;;;12.60;97.60;;;;;;5027692;28;20028;-77
2022/06/01 06:43:03;;;;;;;;;;;12.70;97.70;;;;;;5011031;28;20025;-78
2022/06/01 06:45:29;;;;;;;;;;;12.70;97.60;;;;;;5012343;28;20388;-78
2022/06/01 06:47:57;;;;;;;;;;;12.70;97.60;;;;;;5027119;28;19936;-81
2022/06/01 06:50:24;;;;;;;;;;;12.80;97.60;;;;;;5011527;28;19925;-79
2022/06/01 06:52:51;;;;;;;;;;;12.80;97.50;;;;;;5012268;28;19973;-79
2022/06/01 06:55:18;;;;;;;;;;;12.90;97.40;;;;;;5013862;28;20016;-79
2022/06/01 06:57:45;;;;;;;;;;;12.90;97.40;;;;;;5012330;28;19936;-79
2022/06/01 07:00:12;;;;;;;;;;;12.90;97.40;;;;;;5012160;28;20028;-78
2022/06/01 07:02:39;;;;;;;;;;;13.00;97.40;;;;;;5012948;28;20287;-78
2022/06/01 07:05:07;;;;;;;;;;;13.00;97.30;;;;;;4995400;28;20009;-82
2022/06/01 07:07:34;;;;;;;;;;;13.00;97.30;;;;;;5011160;28;19930;-86
2022/06/01 07:10:01;;;;;;;;;;;13.00;97.30;;;;;;5012678;28;19933;-81
2022/06/01 07:12:28;;;;;;;;;;;13.10;97.20;;;;;;5111304;23;19925;-80
2022/06/01 07:14:55;;;;;;;;;;;13.10;97.30;;;;;;5035120;28;20935;-80
2022/06/01 07:17:22;;;;;;;;;;;13.20;97.50;;;;;;5031626;28;19929;-81
2022/06/01 07:19:49;;;;;;;;;;;13.20;97.40;;;;;;5031929;28;19932;-80
2022/06/01 07:22:17;;;;;;;;;;;13.20;97.10;;;;;;5035138;28;20027;-80
2022/06/01 07:24:43;;;;;;;;;;;13.30;97.10;;;;;;5035212;28;19925;-81
2022/06/01 07:27:10;;;;;;;;;;;13.30;97.00;;;;;;5033215;28;19930;-82
2022/06/01 07:29:37;;;;;;;;;;;13.30;96.90;;;;;;5018342;28;19932;-82
2022/06/01 07:32:04;;;;;;;;;;;13.40;96.80;;;;;;5035673;28;19925;-81
2022/06/01 07:34:31;;;;;;;;;;;13.40;96.80;;;;;;5018432;28;20437;-80
2022/06/01 07:43:05;;;;;;;;;;;13.40;97.00;;;;;;5034931;28;19929;-82
2022/06/01 07:45:14;;;;;;;;;;;13.40;96.90;;;;;;5034566;28;19925;-80
2022/06/01 07:47:41;;;;;;;;;;;13.40;96.80;;;;;;5034549;28;19979;-80
2022/06/01 07:50:08;;;;;;;;;;;13.40;96.60;;;;;;5018096;28;19932;-80
2022/06/01 07:52:35;;;;;;;;;;;13.40;96.50;;;;;;5052260;28;20016;-81
2022/06/01 07:55:03;;;;;;;;;;;13.30;96.00;;;;;;5034924;28;19931;-76
2022/06/01 07:57:32;;;;;;;;;;;13.30;95.70;;;;;;5035211;28;19936;-80
2022/06/01 07:59:58;;;;;;;;;;;13.10;95.80;;;;;;5032656;28;19925;-80
2022/06/01 08:02:25;;;;;;;;;;;13.10;95.80;;;;;;5033102;28;19980;-80
2022/06/01 08:04:52;;;;;;;;;;;13.00;95.70;;;;;;5032729;28;20050;-78
2022/06/01 08:07:19;;;;;;;;;;;12.90;95.80;;;;;;5032395;28;19929;-77
2022/06/01 08:09:47;;;;;;;;;;;12.90;95.90;;;;;;5032720;28;19925;-78
2022/06/01 08:14:59;;;;;;;;;;;12.80;95.90;;;;;;5031656;28;20023;-78
2022/06/01 08:17:26;;;;;;;;;;;12.70;95.90;;;;;;5033990;28;19936;-77
2022/06/01 08:19:53;;;;;;;;;;;12.70;96.00;;;;;;5034873;28;20045;-78
2022/06/01 08:22:19;;;;;;;;;;;12.80;95.90;;;;;;5034287;28;19932;-78
2022/06/01 08:24:46;;;;;;;;;;;12.80;95.80;;;;;;5034632;28;20470;-78
2022/06/01 08:27:13;;;;;;;;;;;12.80;95.70;;;;;;5049612;28;19933;-79
2022/06/01 08:29:41;;;;;;;;;;;12.80;95.90;;;;;;5035266;28;20011;-77
2022/06/01 08:32:08;;;;;;;;;;;12.90;96.10;;;;;;5034242;28;20024;-77
2022/06/01 08:34:36;;;;;;;;;;;12.90;96.10;;;;;;5035503;28;19931;-82
2022/06/01 08:37:02;;;;;;;;;;;12.90;96.10;;;;;;5033552;28;19929;-77
2022/06/01 08:39:29;;;;;;;;;;;12.90;96.30;;;;;;5034430;28;19955;-77
2022/06/01 08:41:57;;;;;;;;;;;12.90;96.50;;;;;;5033923;28;19925;-76
2022/06/01 08:44:25;;;;;;;;;;;12.90;96.60;;;;;;5034029;28;20840;-79
2022/06/01 08:46:56;;;;;;;;;;;12.90;96.60;;;;;;5052964;28;19999;-79
2022/06/01 08:49:24;;;;;;;;;;;13.00;96.70;;;;;;5034438;28;19925;-79
2022/06/01 08:51:51;;;;;;;;;;;13.00;96.70;;;;;;5079359;23;20018;-78
2022/06/01 08:54:19;;;;;;;;;;;13.00;96.80;;;;;;5033875;28;19925;-76
2022/06/01 08:56:47;;;;;;;;;;;13.00;96.90;;;;;;5034959;28;20023;-78
2022/06/01 08:59:19;;;;;;;;;;;13.00;97.00;;;;;;5033767;28;20020;-77
2022/06/01 09:01:51;;;;;;;;;;;13.10;97.40;;;;;;5033668;28;19925;-79
2022/06/01 09:04:25;;;;;;;;;;;13.10;97.70;;;;;;5034936;28;19925;-80
2022/06/01 09:06:52;;;;;;;;;;;13.20;97.20;;;;;;5034011;28;20023;-81
2022/06/01 09:09:25;;;;;;;;;;;13.30;97.10;;;;;;5033022;28;20020;-81
2022/06/01 09:11:51;;;;;;;;;;;13.30;97.00;;;;;;5031955;28;19925;-82
2022/06/01 09:14:22;;;;;;;;;;;13.30;96.90;;;;;;5034110;28;20363;-82
2022/06/01 09:16:50;;;;;;;;;;;13.40;96.90;;;;;;5016269;28;19941;-80
2022/06/01 09:19:21;;;;;;;;;;;13.40;97.00;;;;;;5014368;28;19931;-80
2022/06/01 09:24:40;;;;;;;;;;;13.50;97.00;;;;;;5030463;28;19979;-79
2022/06/01 09:27:08;;;;;;;;;;;13.50;96.80;;;;;;5032506;28;20417;-79
2022/06/01 09:29:36;;;;;;;;;;;13.60;96.90;;;;;;5032054;28;19933;-79
2022/06/01 09:32:04;;;;;;;;;;;13.60;96.90;;;;;;5032683;28;19933;-79
2022/06/01 09:34:39;;;;;;;;;;;13.70;96.90;;;;;;5013717;28;19936;-81
2022/06/01 09:37:13;;;;;;;;;;;13.70;97.00;;;;;;5032163;28;20016;-81
2022/06/01 09:39:48;;;;;;;;;;;13.80;97.60;;;;;;5049330;28;20222;-81
2022/06/01 09:42:16;;;;;;;;;;;13.90;97.20;;;;;;5030497;28;20442;-81
2022/06/01 09:44:44;;;;;;;;;;;13.90;97.00;;;;;;5032446;28;20461;-80
2022/06/01 09:47:21;;;;;;;;;;;14.00;96.90;;;;;;5029040;28;20307;-80
2022/06/01 09:49:52;;;;;;;;;;;14.00;96.80;;;;;;5031967;28;19933;-80
2022/06/01 09:52:24;;;;;;;;;;;14.00;96.70;;;;;;5031974;28;19948;-80
2022/06/01 09:54:52;;;;;;;;;;;14.10;96.60;;;;;;5031361;28;20306;-81
2022/06/01 09:57:20;;;;;;;;;;;14.10;96.60;;;;;;5032091;28;20490;-80
2022/06/01 10:08:11;;;;;;;;;;;14.10;97.10;;;;;;5019197;28;20035;-81
2022/06/01 10:10:39;;;;;;;;;;;14.10;97.00;;;;;;5048628;28;19971;-82
2022/06/01 10:13:07;;;;;;;;;;;14.20;97.00;;;;;;5032248;28;19933;-81
2022/06/01 10:15:35;;;;;;;;;;;14.20;97.00;;;;;;5032634;28;19929;-82
2022/06/01 10:18:05;;;;;;;;;;;14.30;97.00;;;;;;5015384;28;19931;-82
2022/06/01 10:20:33;;;;;;;;;;;14.30;97.10;;;;;;5032372;28;19925;-81
2022/06/01 10:23:04;;;;;;;;;;;14.30;97.10;;;;;;5032154;28;19964;-81
2022/06/01 10:25:34;;;;;;;;;;;14.40;96.90;;;;;;5032267;28;20074;-81
2022/06/01 10:28:03;;;;;;;;;;;14.40;96.90;;;;;;5014962;28;20321;-81
2022/06/01 10:30:33;;;;;;;;;;;14.40;96.90;;;;;;5031432;28;20013;-81
2022/06/01 10:33:03;;;;;;;;;;;14.50;97.00;;;;;;5031912;28;20031;-80
2022/06/01 10:35:35;;;;;;;;;;;14.50;96.90;;;;;;5031378;28;19981;-80
2022/06/01 10:38:12;;;;;;;;;;;14.60;96.90;;;;;;5029573;28;19929;-81
2022/06/01 10:40:43;;;;;;;;;;;14.60;96.50;;;;;;5029442;28;19925;-79
2022/06/01 10:43:19;;;;;;;;;;;14.70;96.50;;;;;;5031139;28;20009;-80
2022/06/01 10:45:49;;;;;;;;;;;14.70;96.30;;;;;;5033663;28;20023;-80
2022/06/01 10:48:18;;;;;;;;;;;14.80;94.90;;;;;;5031230;28;19929;-81
2022/06/01 10:50:48;;;;;;;;;;;14.80;95.10;;;;;;5030659;28;20401;-81
2022/06/01 10:53:18;;;;;;;;;;;14.80;95.30;;;;;;5028692;28;19960;-81
2022/06/01 10:55:48;;;;;;;;;;;14.80;95.20;;;;;;5031616;28;19926;-81
2022/06/01 10:58:17;;;;;;;;;;;14.80;95.40;;;;;;5028176;28;19929;-81
2022/06/01 11:00:48;;;;;;;;;;;14.80;95.30;;;;;;5031156;28;19925;-82
2022/06/01 11:03:34;;;;;;;;;;;14.80;95.40;;;;;;5031490;28;19925;-83
2022/06/01 11:06:05;;;;;;;;;;;14.80;95.40;;;;;;5014528;28;19972;-81
2022/06/01 11:08:37;;;;;;;;;;;14.90;94.70;;;;;;5030893;28;20028;-83
2022/06/01 11:11:11;;;;;;;;;;;14.90;95.00;;;;;;5028534;28;19925;-82
2022/06/01 11:13:43;;;;;;;;;;;14.90;95.10;;;;;;5031145;28;19932;-80
2022/06/01 11:16:15;;;;;;;;;;;15.00;95.20;;;;;;5031955;28;19929;-79
2022/06/01 11:18:51;;;;;;;;;;;15.00;95.00;;;;;;5011549;28;19929;-81
2022/06/01 11:21:22;;;;;;;;;;;15.00;95.00;;;;;;5030596;28;19972;-79
2022/06/01 11:23:57;;;;;;;;;;;15.00;94.80;;;;;;5031390;28;20032;-80
2022/06/01 11:26:32;;;;;;;;;;;15.10;95.00;;;;;;5031066;28;19932;-79
2022/06/01 11:29:15;;;;;;;;;;;15.10;94.60;;;;;;5030421;28;20402;-80
2022/06/01 11:31:44;;;;;;;;;;;15.10;94.00;;;;;;5028983;28;20012;-82
2022/06/01 11:34:13;;;;;;;;;;;15.10;92.90;;;;;;5031098;28;19925;-80
2022/06/01 11:36:45;;;;;;;;;;;15.00;93.10;;;;;;5031625;28;19972;-80
2022/06/01 11:39:15;;;;;;;;;;;14.90;92.40;;;;;;5028394;28;19978;-80
2022/06/01 11:41:50;;;;;;;;;;;14.80;92.00;;;;;;5030721;28;19925;-82
2022/06/01 11:44:21;;;;;;;;;;;14.50;91.80;;;;;;5030496;28;19964;-81
2022/06/01 11:46:53;;;;;;;;;;;14.30;91.70;;;;;;5030518;28;19980;-81
2022/06/01 11:49:26;;;;;;;;;;;14.10;92.20;;;;;;5030484;28;19933;-81
2022/06/01 11:51:53;;;;;;;;;;;13.90;92.30;;;;;;5029444;28;19931;-81
2022/06/01 11:54:27;;;;;;;;;;;13.80;92.90;;;;;;5029477;28;19931;-81
2022/06/01 11:56:59;;;;;;;;;;;13.60;93.40;;;;;;5029231;28;20374;-81
2022/06/01 11:59:30;;;;;;;;;;;13.60;93.70;;;;;;5029105;28;19929;-81
2022/06/01 12:02:03;;;;;;;;;;;13.60;93.70;;;;;;5029364;28;19933;-81
2022/06/01 12:04:32;;;;;;;;;;;13.50;94.00;;;;;;5013221;28;20392;-81
2022/06/01 12:07:01;;;;;;;;;;;13.50;94.00;;;;;;5046101;28;20491;-81
2022/06/01 12:09:41;;;;;;;;;;;13.60;94.30;;;;;;5033764;28;19936;-81
2022/06/01 12:12:22;;;;;;;;;;;13.60;94.50;;;;;;5034190;28;19929;-81
2022/06/01 12:14:56;;;;;;;;;;;13.60;94.60;;;;;;5034426;28;19925;-81
2022/06/01 12:17:24;;;;;;;;;;;13.70;94.60;;;;;;5034486;28;19964;-81
2022/06/01 12:19:52;;;;;;;;;;;13.70;94.60;;;;;;5034055;28;20024;-81
2022/06/01 12:30:50;;;;;;;;;;;13.90;94.40;;;;;;5035267;28;19976;-80
2022/06/01 12:33:16;;;;;;;;;;;13.90;94.40;;;;;;5034001;28;20014;-81
2022/06/01 12:35:45;;;;;;;;;;;14.00;94.30;;;;;;5034264;28;19925;-81
2022/06/01 12:38:16;;;;;;;;;;;14.00;94.70;;;;;;5017648;28;19973;-81
2022/06/01 12:40:52;;;;;;;;;;;14.10;94.60;;;;;;5033710;28;19936;-80
2022/06/01 12:43:20;;;;;;;;;;;14.20;94.80;;;;;;5034060;28;20318;-81
2022/06/01 12:45:47;;;;;;;;;;;14.30;94.60;;;;;;5017799;28;20204;-81
2022/06/01 12:48:16;;;;;;;;;;;14.40;94.40;;;;;;5033652;28;19932;-81
2022/06/01 12:50:47;;;;;;;;;;;14.50;94.20;;;;;;5033621;28;19967;-81
2022/06/01 12:53:16;;;;;;;;;;;14.60;93.90;;;;;;5033662;28;19931;-81
2022/06/01 12:55:44;;;;;;;;;;;14.70;93.90;;;;;;5034202;28;19936;-81
2022/06/01 12:58:15;;;;;;;;;;;14.70;93.60;;;;;;5032965;28;19925;-81
2022/06/01 13:00:46;;;;;;;;;;;14.80;93.50;;;;;;5033889;28;20068;-81
2022/06/01 13:03:13;;;;;;;;;;;14.90;93.60;;;;;;5033666;28;20041;-81
2022/06/01 13:05:42;;;;;;;;;;;14.90;93.70;;;;;;5033464;28;20230;-81
2022/06/01 13:08:11;;;;;;;;;;;14.90;93.30;;;;;;5016906;28;19925;-81
2022/06/01 13:10:37;;;;;;;;;;;15.00;93.50;;;;;;5033330;28;19934;-81
2022/06/01 13:13:06;;;;;;;;;;;15.00;93.60;;;;;;5033182;28;19926;-81
2022/06/01 13:15:34;;;;;;;;;;;15.00;93.60;;;;;;5033130;28;20020;-81
2022/06/01 13:18:01;;;;;;;;;;;15.10;93.30;;;;;;5032527;28;20031;-81
2022/06/01 13:20:34;;;;;;;;;;;15.10;93.20;;;;;;5033155;28;20028;-81
2022/06/01 13:23:02;;;;;;;;;;;15.10;93.30;;;;;;5016850;28;19932;-81
2022/06/01 13:25:31;;;;;;;;;;;15.10;93.50;;;;;;5033087;28;20144;-81
2022/06/01 13:27:58;;;;;;;;;;;15.20;93.50;;;;;;5032717;28;19977;-81
2022/06/01 13:30:27;;;;;;;;;;;15.20;93.60;;;;;;5032680;28;20462;-81
2022/06/01 13:32:54;;;;;;;;;;;15.30;93.50;;;;;;5033089;28;20581;-81
2022/06/01 13:35:25;;;;;;;;;;;15.30;93.30;;;;;;5032755;28;20420;-81
2022/06/01 13:37:53;;;;;;;;;;;15.40;93.50;;;;;;5032825;28;20372;-81
2022/06/01 13:40:26;;;;;;;;;;;15.40;93.40;;;;;;5033101;28;19929;-81
2022/06/01 13:43:00;;;;;;;;;;;15.50;93.10;;;;;;5032833;28;19925;-81
2022/06/01 13:45:34;;;;;;;;;;;15.50;92.10;;;;;;5033354;28;19925;-81
2022/06/01 13:48:02;;;;;;;;;;;15.50;91.00;;;;;;5049249;28;19999;-82
2022/06/01 13:50:30;;;;;;;;;;;15.50;91.90;;;;;;5032952;28;20036;-81
2022/06/01 13:53:03;;;;;;;;;;;15.60;92.40;;;;;;5032209;28;20388;-82
2022/06/01 13:55:32;;;;;;;;;;;15.70;92.60;;;;;;5032453;28;19925;-81
2022/06/01 13:58:08;;;;;;;;;;;15.70;92.30;;;;;;5033159;28;20019;-81
2022/06/01 14:00:37;;;;;;;;;;;15.80;91.20;;;;;;5016019;28;19930;-81
2022/06/01 14:03:06;;;;;;;;;;;15.70;91.00;;;;;;5033040;28;20492;-82
2022/06/01 14:05:35;;;;;;;;;;;15.70;90.90;;;;;;5033306;28;20490;-82
2022/06/01 14:08:06;;;;;;;;;;;15.70;90.90;;;;;;5015772;28;20032;-81
2022/06/01 14:10:36;;;;;;;;;;;15.60;90.00;;;;;;5032575;28;19976;-82
2022/06/01 14:13:02;;;;;;;;;;;15.60;89.30;;;;;;5032666;28;19925;-82
2022/06/01 14:15:29;;;;;;;;;;;15.50;89.70;;;;;;5016454;28;20372;-83
2022/06/01 14:17:56;;;;;;;;;;;15.50;89.80;;;;;;5050506;28;19925;-83
2022/06/01 14:20:23;;;;;;;;;;;15.50;90.10;;;;;;5032952;28;20434;-85
2022/06/01 14:22:50;;;;;;;;;;;15.50;90.50;;;;;;5033234;28;20000;-84
2022/06/01 14:30:46;;;;;;;;;;;15.60;90.90;;;;;;5031473;28;19983;-80
2022/06/01 14:33:13;;;;;;;;;;;15.60;90.60;;;;;;5030423;28;19925;-80
2022/06/01 14:35:40;;;;;;;;;;;15.60;90.80;;;;;;5031591;28;19932;-80
2022/06/01 14:38:07;;;;;;;;;;;15.70;90.70;;;;;;5044002;28;20409;-76
2022/06/01 14:40:34;;;;;;;;;;;15.70;90.20;;;;;;5032898;28;19973;-77
2022/06/01 14:43:05;;;;;;;;;;;15.70;90.40;;;;;;5032120;28;19926;-77
2022/06/01 14:45:32;;;;;;;;;;;15.70;90.60;;;;;;5031996;28;19979;-77
2022/06/01 14:47:58;;;;;;;;;;;15.70;91.10;;;;;;5031884;28;19981;-77
2022/06/01 14:50:25;;;;;;;;;;;15.70;91.20;;;;;;5032139;28;19930;-78
2022/06/01 14:52:52;;;;;;;;;;;15.80;90.30;;;;;;5033014;28;20015;-80
2022/06/01 14:55:19;;;;;;;;;;;15.80;90.30;;;;;;5032743;28;19925;-79
2022/06/01 14:57:46;;;;;;;;;;;15.80;89.90;;;;;;5032142;28;19925;-79
2022/06/01 15:00:15;;;;;;;;;;;15.80;88.60;;;;;;5029896;28;20077;-79
2022/06/01 15:02:45;;;;;;;;;;;15.70;88.40;;;;;;5032539;28;19959;-79